Time;durP1;ratioP1;P1;durP2;ratioP2;P2;SDS_P1;SDS_P2;PMS_P1;PMS_P2;Temp;Humidity;BMP_temperature;BMP_pressure;BME280_temperature;BME280_humidity;BME280_pressure;Samples;Min_cycle;Max_cycle;Signal;HPM_P1;HPM_P2
2021/12/13 00:02:01;;;;;;;33.20;10.68;;;;;;;8.12;93.41;101163.59;5076093;28;20455;-77
2021/12/13 00:04:34;;;;;;;35.63;11.52;;;;;;;8.13;93.43;101169.81;5076019;28;20060;-76
2021/12/13 00:07:16;;;;;;;27.20;9.93;;;;;;;8.11;93.12;101156.56;5076532;28;20046;-77
2021/12/13 00:09:48;;;;;;;24.98;8.50;;;;;;;8.10;93.32;101167.47;5074790;28;20410;-77
2021/12/13 00:12:20;;;;;;;30.70;9.50;;;;;;;8.09;93.27;101155.06;5075937;28;20059;-77
2021/12/13 00:14:51;;;;;;;27.90;8.45;;;;;;;8.09;93.23;101160.41;5075764;28;20024;-77
2021/12/13 00:17:21;;;;;;;25.85;8.13;;;;;;;8.06;93.54;101161.59;5075787;28;20052;-77
2021/12/13 00:19:59;;;;;;;24.23;7.90;;;;;;;8.07;93.32;101160.59;5076300;28;20131;-76
2021/12/13 00:22:37;;;;;;;23.08;7.47;;;;;;;8.07;93.39;101165.13;5076172;28;20036;-78
2021/12/13 00:25:14;;;;;;;23.10;8.52;;;;;;;8.07;93.62;101165.97;5075684;28;20037;-77
2021/12/13 00:27:43;;;;;;;22.23;7.75;;;;;;;8.06;93.60;101163.47;5075575;28;20407;-78
2021/12/13 00:30:42;;;;;;;23.77;8.00;;;;;;;8.05;93.37;101167.16;5075752;28;20112;-78
2021/12/13 00:33:48;;;;;;;30.15;8.48;;;;;;;8.05;93.52;101161.78;5051954;28;20395;-77
2021/12/13 00:36:27;;;;;;;30.30;8.48;;;;;;;8.04;93.11;101170.84;5073049;28;20103;-80
2021/12/13 00:39:05;;;;;;;34.15;9.52;;;;;;;8.03;93.52;101164.66;5075659;28;20025;-78
2021/12/13 00:41:34;;;;;;;25.55;8.35;;;;;;;8.01;93.74;101166.66;5075493;28;20387;-78
2021/12/13 00:44:05;;;;;;;26.92;8.05;;;;;;;8.02;93.76;101165.66;5075876;28;20463;-78
2021/12/13 00:46:32;;;;;;;30.65;9.50;;;;;;;8.01;93.37;101161.28;5075575;28;20057;-78
2021/12/13 00:49:00;;;;;;;26.90;8.20;;;;;;;8.00;93.79;101170.34;5075360;28;20105;-77
2021/12/13 00:51:28;;;;;;;28.63;8.90;;;;;;;7.99;93.57;101164.16;5075064;28;20448;-77
2021/12/13 00:53:58;;;;;;;20.10;8.35;;;;;;;8.00;93.73;101167.66;5090764;28;20025;-78
2021/12/13 00:56:54;;;;;;;28.92;8.15;;;;;;;8.00;93.60;101170.34;5074818;28;20040;-77
2021/12/13 00:59:22;;;;;;;25.20;9.35;;;;;;;8.00;93.80;101170.34;5090597;28;20493;-76
2021/12/13 01:02:05;;;;;;;32.10;9.80;;;;;;;7.99;93.68;101177.56;5074461;28;20033;-77
2021/12/13 01:04:52;;;;;;;24.35;8.85;;;;;;;7.99;93.48;101182.94;5074849;28;20064;-77
2021/12/13 01:07:32;;;;;;;28.10;8.32;;;;;;;7.96;93.59;101183.25;5074642;28;20471;-77
2021/12/13 01:10:28;;;;;;;30.35;9.80;;;;;;;7.99;93.69;101187.47;5074538;28;20032;-76
2021/12/13 01:12:57;;;;;;;25.25;8.93;;;;;;;7.96;93.43;101191.31;5074271;28;20033;-76
2021/12/13 01:15:36;;;;;;;25.50;9.05;;;;;;;7.96;93.51;101183.25;5074859;28;20028;-77
2021/12/13 01:18:58;;;;;;;38.17;8.82;;;;;;;7.94;93.33;101193.31;5074701;28;20067;-77
2021/12/13 01:21:30;;;;;;;24.58;8.60;;;;;;;7.95;93.63;101188.78;5074150;28;20364;-77
2021/12/13 01:24:06;;;;;;;26.48;8.68;;;;;;;7.93;93.60;101188.97;5074181;28;20027;-76
2021/12/13 01:26:39;;;;;;;33.75;9.65;;;;;;;7.92;93.53;101186.44;5074349;28;20036;-76
2021/12/13 01:29:17;;;;;;;25.52;9.88;;;;;;;7.91;93.32;101199.03;5042966;27;20032;-76
2021/12/13 01:31:56;;;;;;;31.77;8.43;;;;;;;7.88;93.43;101194.00;5074032;28;20036;-76
2021/12/13 01:34:25;;;;;;;22.95;9.13;;;;;;;7.90;93.30;101200.03;5073824;28;20471;-75
2021/12/13 01:37:02;;;;;;;25.00;9.57;;;;;;;7.89;93.76;101197.50;5074007;28;20054;-77
2021/12/13 01:39:30;;;;;;;22.90;7.15;;;;;;;7.86;93.36;101206.75;5074204;28;20111;-76
2021/12/13 01:42:04;;;;;;;25.95;8.40;;;;;;;7.86;93.19;101206.75;5073866;28;20036;-76
2021/12/13 01:44:33;;;;;;;27.45;8.82;;;;;;;7.85;93.34;101213.13;5073628;28;20040;-78
2021/12/13 01:47:21;;;;;;;21.85;7.85;;;;;;;7.81;93.23;101208.25;5073964;28;20028;-77
2021/12/13 01:49:58;;;;;;;20.33;8.23;;;;;;;7.81;93.29;101197.53;5073561;28;20086;-77
2021/12/13 01:52:27;;;;;;;26.90;7.95;;;;;;;7.83;93.18;101201.72;5074450;28;20043;-77
2021/12/13 01:55:01;;;;;;;26.48;7.78;;;;;;;7.83;93.28;101206.25;5073480;28;20075;-76
2021/12/13 02:01:08;;;;;;;18.67;6.63;;;;;;;7.81;93.34;101216.31;5072649;28;20111;-76
2021/12/13 02:03:19;;;;;;;22.33;7.20;;;;;;;7.82;93.00;101220.66;5073133;28;20033;-75
2021/12/13 02:05:46;;;;;;;;;;;;;;;7.79;93.18;101216.47;5073996;28;20032;-77
2021/12/13 02:08:15;;;;;;;21.05;7.47;;;;;;;7.80;92.94;101217.31;5073358;28;19912;-76
2021/12/13 02:10:46;;;;;;;19.90;6.45;;;;;;;7.82;93.23;101220.66;5073621;28;20036;-75
2021/12/13 02:13:21;;;;;;;18.77;5.90;;;;;;;7.80;92.99;101214.63;5072332;28;20036;-76
2021/12/13 02:18:37;;;;;;;;;;;;;;;7.76;92.71;101221.34;5073781;28;20035;-76
2021/12/13 02:21:21;;;;;;;20.55;5.93;;;;;;;7.75;92.67;101214.28;5073083;28;19962;-77
2021/12/13 02:23:50;;;;;;;22.40;6.22;;;;;;;7.75;92.62;101216.97;5073164;28;20028;-76
2021/12/13 02:26:16;;;;;;;20.55;6.60;;;;;;;7.76;92.98;101215.97;5072984;28;20032;-76
2021/12/13 02:28:44;;;;;;;21.88;5.30;;;;;;;7.77;92.74;101220.31;5073171;28;20097;-75
2021/12/13 02:31:19;;;;;;;18.30;5.80;;;;;;;7.77;92.69;101214.97;5073014;28;20482;-76
2021/12/13 02:33:48;;;;;;;17.58;6.72;;;;;;;7.81;92.07;101213.63;5073423;28;20035;-76
2021/12/13 02:36:19;;;;;;;17.55;4.82;;;;;;;7.77;92.35;101214.97;5073043;28;20456;-75
2021/12/13 02:38:50;;;;;;;11.57;5.57;;;;;;;7.79;92.31;101221.00;5073106;28;20036;-76
2021/12/13 02:41:19;;;;;;;13.10;4.60;;;;;;;7.80;92.60;101225.38;5071915;28;20115;-76
2021/12/13 02:43:48;;;;;;;13.85;5.13;;;;;;;7.80;91.80;101223.53;5072842;28;20095;-76
2021/12/13 02:46:15;;;;;;;16.63;5.95;;;;;;;7.77;92.04;101213.13;5073037;28;20055;-76
2021/12/13 02:48:45;;;;;;;15.15;5.28;;;;;;;7.79;91.84;101218.31;5072799;28;20479;-76
2021/12/13 02:51:16;;;;;;;16.55;5.68;;;;;;;7.77;91.83;101215.81;5073239;28;20035;-78
2021/12/13 02:53:50;;;;;;;15.93;5.57;;;;;;;7.78;92.06;101216.63;5073145;28;20033;-76
2021/12/13 02:56:20;;;;;;;15.45;5.28;;;;;;;7.78;92.17;101213.97;5072644;28;20032;-77
2021/12/13 02:58:46;;;;;;;12.00;4.68;;;;;;;7.77;91.94;101218.47;5072839;28;20052;-77
2021/12/13 03:01:14;;;;;;;13.45;4.22;;;;;;;7.78;92.02;101216.63;5072800;28;20028;-76
2021/12/13 03:03:47;;;;;;;16.23;4.88;;;;;;;7.78;91.92;101220.16;5072868;28;20024;-74
2021/12/13 03:06:19;;;;;;;14.23;5.45;;;;;;;7.79;91.85;101216.47;5073234;28;20040;-76
2021/12/13 03:08:52;;;;;;;15.50;5.10;;;;;;;7.79;91.67;101221.00;5072783;28;20029;-75
2021/12/13 03:11:28;;;;;;;12.00;4.20;;;;;;;7.75;91.75;101225.00;5072725;28;20490;-76
2021/12/13 03:14:00;;;;;;;11.95;4.90;;;;;;;7.76;91.82;101232.91;5072616;28;20032;-76
2021/12/13 03:16:51;;;;;;;14.30;5.40;;;;;;;7.78;91.65;101233.56;5072441;28;20021;-75
2021/12/13 03:19:39;;;;;;;13.00;4.25;;;;;;;7.76;91.82;101232.91;5072193;28;20048;-76
2021/12/13 03:22:37;;;;;;;13.48;5.10;;;;;;;7.77;91.71;101234.56;5070132;28;20479;-75
2021/12/13 03:25:09;;;;;;;17.17;5.60;;;;;;;7.78;91.47;101230.06;5072420;28;20024;-76
2021/12/13 03:28:06;;;;;;;11.20;4.13;;;;;;;7.74;91.16;101234.91;5072627;28;20099;-79
2021/12/13 03:30:35;;;;;;;;;;;;;;;7.76;91.14;101237.44;5061647;28;20049;-76
2021/12/13 03:33:07;;;;;;;13.52;4.70;;;;;;;7.74;91.33;101242.13;5042634;27;19908;-76
2021/12/13 03:35:45;;;;;;;13.32;4.50;;;;;;;7.73;91.47;101235.91;5072301;28;20139;-76
2021/12/13 03:38:26;;;;;;;11.80;4.25;;;;;;;7.73;91.07;101235.91;5076025;28;20029;-76
2021/12/13 03:40:52;;;;;;;12.50;4.45;;;;;;;7.70;91.18;101233.59;5076438;28;20024;-78
2021/12/13 03:43:27;;;;;;;10.77;3.95;;;;;;;7.71;90.95;101239.75;5091863;28;20124;-76
2021/12/13 03:45:57;;;;;;;10.73;4.18;;;;;;;7.70;91.32;101236.28;5076179;28;20028;-76
2021/12/13 03:48:25;;;;;;;11.30;3.92;;;;;;;7.69;91.51;101234.59;5075934;28;20036;-76
2021/12/13 03:50:54;;;;;;;9.00;3.75;;;;;;;7.71;90.75;101242.44;5076143;28;20040;-77
2021/12/13 03:53:23;;;;;;;9.65;4.03;;;;;;;7.73;91.26;101246.63;5076314;28;20040;-77
2021/12/13 03:55:52;;;;;;;9.07;3.55;;;;;;;7.73;90.99;101235.91;5075880;28;20033;-75
2021/12/13 03:58:23;;;;;;;9.52;4.22;;;;;;;7.71;90.93;101245.97;5075769;28;20025;-76
2021/12/13 04:00:57;;;;;;;8.63;3.50;;;;;;;7.71;90.70;101242.44;5075961;28;20032;-77
2021/12/13 04:03:25;;;;;;;9.52;3.45;;;;;;;7.68;90.92;101238.28;5074599;28;20068;-76
2021/12/13 04:05:51;;;;;;;12.27;4.32;;;;;;;7.70;90.73;101247.00;5075912;28;20046;-76
2021/12/13 04:08:18;;;;;;;10.88;3.40;;;;;;;7.70;90.96;101246.16;5076128;28;20036;-77
2021/12/13 04:10:51;;;;;;;12.90;3.90;;;;;;;7.70;90.89;101241.63;5076052;28;20028;-76
2021/12/13 04:13:19;;;;;;;11.82;3.83;;;;;;;7.73;90.92;101238.59;5076078;28;20036;-76
2021/12/13 04:16:04;;;;;;;8.25;3.30;;;;;;;7.72;90.98;101236.06;5075865;28;20082;-76
2021/12/13 04:19:08;;;;;;;6.97;3.03;;;;;;;7.70;90.82;101235.44;5077109;28;20025;-77
2021/12/13 04:21:44;;;;;;;8.25;3.10;;;;;;;7.67;90.59;101228.56;5077433;28;20048;-77
2021/12/13 04:24:14;;;;;;;7.55;3.58;;;;;;;7.68;90.85;101232.06;5075834;28;20056;-77
2021/12/13 04:26:44;;;;;;;7.88;2.95;;;;;;;7.69;90.65;101231.91;5091597;28;20035;-77
2021/12/13 04:29:22;;;;;;;9.55;4.05;;;;;;;7.68;90.56;101250.84;5075191;28;20043;-76
2021/12/13 04:31:50;;;;;;;8.35;3.53;;;;;;;7.66;90.69;101246.50;5074330;28;20038;-78
2021/12/13 04:34:16;;;;;;;8.13;3.58;;;;;;;7.69;90.40;101250.69;5075148;28;20035;-76
2021/12/13 04:36:44;;;;;;;;;;;;;;;7.71;90.91;101243.28;5075940;28;20045;-78
2021/12/13 04:39:27;;;;;;;8.60;3.38;;;;;;;7.70;90.52;101243.47;5075533;28;20339;-78
2021/12/13 04:42:00;;;;;;;9.43;3.95;;;;;;;7.70;90.47;101247.00;5075328;28;20031;-76
2021/12/13 04:44:39;;;;;;;9.93;3.67;;;;;;;7.66;90.64;101253.69;5075643;28;20081;-77
2021/12/13 04:47:10;;;;;;;10.25;3.72;;;;;;;7.66;90.49;101248.34;5074986;28;20044;-76
2021/12/13 04:49:39;;;;;;;11.38;3.83;;;;;;;7.63;90.72;101249.50;5075730;28;20035;-76
2021/12/13 04:52:09;;;;;;;9.23;3.45;;;;;;;7.66;90.50;101251.84;5075099;28;20083;-76
2021/12/13 04:54:37;;;;;;;11.43;4.15;;;;;;;7.66;90.41;101249.16;5075409;28;20032;-78
2021/12/13 04:57:05;;;;;;;10.25;3.50;;;;;;;7.64;90.43;101253.84;5074733;28;20032;-76
2021/12/13 04:59:30;;;;;;;9.05;3.53;;;;;;;7.63;90.75;101252.19;5074914;28;20062;-75
2021/12/13 05:02:00;;;;;;;13.07;4.00;;;;;;;7.62;90.81;101253.19;5074552;28;20418;-76
2021/12/13 05:04:29;;;;;;;14.05;5.10;;;;;;;7.66;90.57;101249.16;5075403;28;20029;-76
2021/12/13 05:06:57;;;;;;;10.50;3.50;;;;;;;7.65;90.74;101252.00;5075185;28;20064;-77
2021/12/13 05:09:24;;;;;;;9.43;3.75;;;;;;;7.64;90.45;101256.53;5074936;28;20408;-76
2021/12/13 05:12:01;;;;;;;11.07;4.38;;;;;;;7.62;90.73;101247.81;5074694;28;20036;-76
2021/12/13 05:14:38;;;;;;;13.45;5.32;;;;;;;7.63;90.32;101251.34;5074703;28;20482;-76
2021/12/13 05:17:20;;;;;;;11.73;4.93;;;;;;;7.63;90.26;101249.50;5074272;28;20028;-76
2021/12/13 05:19:51;;;;;;;12.30;4.18;;;;;;;7.63;90.28;101245.97;5074899;28;20479;-79
2021/12/13 05:22:19;;;;;;;11.63;4.60;;;;;;;7.64;90.23;101243.13;5074709;28;20115;-76
2021/12/13 05:24:50;;;;;;;13.13;4.35;;;;;;;7.63;90.08;101243.28;5074674;28;20028;-77
2021/12/13 05:27:38;;;;;;;10.82;4.30;;;;;;;7.63;90.32;101246.81;5044558;27;20151;-76
2021/12/13 05:30:24;;;;;;;10.48;4.43;;;;;;;7.63;90.28;101245.97;5074038;28;20070;-76
2021/12/13 05:32:58;;;;;;;10.82;4.75;;;;;;;7.65;90.44;101255.53;5074790;28;20440;-75
2021/12/13 05:35:37;;;;;;;11.25;4.10;;;;;;;7.66;89.91;101248.34;5075490;28;20057;-76
2021/12/13 05:38:06;;;;;;;7.20;3.65;;;;;;;7.68;89.70;101254.38;5074202;28;20033;-76
2021/12/13 05:40:44;;;;;;;10.43;4.10;;;;;;;7.66;90.07;101251.84;5075075;28;20025;-77
2021/12/13 05:43:22;;;;;;;11.57;4.97;;;;;;;7.69;89.89;101253.38;5074867;28;20437;-77
2021/12/13 05:45:50;;;;;;;10.88;3.97;;;;;;;7.70;89.81;101251.53;5074982;28;20471;-77
2021/12/13 05:48:43;;;;;;;10.32;3.88;;;;;;;7.69;89.50;101253.38;5075701;28;20046;-76
2021/12/13 05:51:27;;;;;;;10.25;4.88;;;;;;;7.74;89.22;101256.38;5073871;28;20063;-76
2021/12/13 05:53:58;;;;;;;7.05;3.42;;;;;;;7.72;89.52;101262.91;5075092;28;20052;-82
2021/12/13 05:56:28;;;;;;;8.77;3.75;;;;;;;7.72;89.21;101265.59;5073685;28;20429;-76
2021/12/13 05:59:11;;;;;;;9.38;3.83;;;;;;;7.69;89.66;101263.25;5072668;28;20119;-76
2021/12/13 06:01:58;;;;;;;9.00;3.85;;;;;;;7.72;89.53;101266.44;5073611;28;20025;-76
2021/12/13 06:04:41;;;;;;;10.38;4.05;;;;;;;7.72;89.72;101271.78;5073627;28;20024;-77
2021/12/13 06:07:22;;;;;;;10.95;4.13;;;;;;;7.69;89.73;101266.78;5073536;28;20115;-76
2021/12/13 06:10:00;;;;;;;11.02;4.35;;;;;;;7.70;89.71;101276.50;5073886;28;20097;-76
2021/12/13 06:12:35;;;;;;;10.32;4.40;;;;;;;7.72;89.46;101281.69;5074323;28;20028;-79
2021/12/13 06:15:20;;;;;;;9.10;3.50;;;;;;;7.76;88.97;101275.81;5072741;28;20028;-78
2021/12/13 06:17:52;;;;;;;11.13;4.28;;;;;;;7.77;88.83;101282.88;5073020;28;20364;-76
2021/12/13 06:20:52;;;;;;;9.50;4.22;;;;;;;7.78;88.92;101279.19;5073526;28;20071;-76
2021/12/13 06:23:29;;;;;;;10.05;3.70;;;;;;;7.79;88.85;101282.72;5075787;28;20075;-77
2021/12/13 06:26:04;;;;;;;9.73;3.42;;;;;;;7.76;88.96;101280.34;5072755;28;20035;-77
2021/12/13 06:28:33;;;;;;;8.48;3.25;;;;;;;7.76;88.83;101283.88;5073272;28;20041;-76
2021/12/13 06:31:17;;;;;;;7.63;3.63;;;;;;;7.80;88.78;101287.06;5088642;28;20109;-79
2021/12/13 06:33:56;;;;;;;7.75;3.63;;;;;;;7.81;88.36;101288.75;5073848;28;20028;-76
2021/12/13 06:36:40;;;;;;;10.85;3.97;;;;;;;7.82;88.14;101279.69;5090442;28;20052;-79
2021/12/13 06:39:12;;;;;;;10.45;4.28;;;;;;;7.85;87.71;101276.69;5077061;28;20020;-79
2021/12/13 06:41:46;;;;;;;9.70;3.83;;;;;;;7.85;87.77;101269.47;5077460;28;20475;-78
2021/12/13 06:44:18;;;;;;;6.80;3.35;;;;;;;7.89;87.58;101276.16;5074687;28;20030;-79
2021/12/13 06:46:49;;;;;;;8.57;3.42;;;;;;;7.89;87.15;101276.16;5079494;28;20040;-78
2021/12/13 06:49:35;;;;;;;11.05;4.00;;;;;;;7.91;87.18;101274.16;5078419;28;20360;-78
2021/12/13 06:52:06;;;;;;;8.57;3.35;;;;;;;7.93;86.65;101274.84;5075962;28;20029;-77
2021/12/13 06:54:39;;;;;;;5.82;2.60;;;;;;;7.92;86.69;101281.19;5076753;28;20368;-78
2021/12/13 06:57:15;;;;;;;8.40;3.55;;;;;;;7.92;87.30;101285.72;5075118;28;20028;-77
2021/12/13 07:00:08;;;;;;;8.27;3.38;;;;;;;7.93;87.15;101290.94;5074937;28;20035;-81
2021/12/13 07:02:45;;;;;;;7.53;2.63;;;;;;;8.00;86.57;101285.75;5073964;28;20044;-77
2021/12/13 07:05:32;;;;;;;6.53;3.10;;;;;;;7.93;86.69;101282.88;5072894;28;20027;-77
2021/12/13 07:08:19;;;;;;;6.93;2.97;;;;;;;7.92;86.84;101285.72;5074127;28;20475;-78
2021/12/13 07:10:55;;;;;;;8.95;2.90;;;;;;;7.91;87.11;101290.25;5078011;28;20033;-78
2021/12/13 07:13:26;;;;;;;10.73;3.30;;;;;;;7.98;86.77;101287.75;5079988;28;20032;-81
2021/12/13 07:16:15;;;;;;;7.55;3.05;;;;;;;7.92;86.75;101277.69;5084863;28;20259;-79
2021/12/13 07:18:49;;;;;;;6.00;2.72;;;;;;;7.92;86.86;101288.41;5078824;28;20448;-78
2021/12/13 07:21:18;;;;;;;5.75;2.53;;;;;;;7.97;86.85;101294.13;5081099;28;20024;-78
2021/12/13 07:24:03;;;;;;;8.23;2.78;;;;;;;7.95;86.78;101296.13;5079111;28;20455;-78
2021/12/13 07:27:06;;;;;;;8.68;3.03;;;;;;;7.94;87.09;101299.81;5042093;27;20448;-81
2021/12/13 07:29:42;;;;;;;9.90;3.55;;;;;;;7.90;87.38;101299.31;5095350;28;20028;-79
2021/12/13 07:32:13;;;;;;;7.85;2.83;;;;;;;7.90;87.40;101309.22;5079679;28;20111;-80
2021/12/13 07:34:50;;;;;;;7.70;2.75;;;;;;;7.86;87.10;101306.03;5081020;28;20038;-77
2021/12/13 07:37:16;;;;;;;7.35;3.78;;;;;;;7.92;87.09;101308.03;5080949;28;20036;-79
2021/12/13 07:39:43;;;;;;;8.20;3.00;;;;;;;7.97;87.51;101308.38;5079329;28;20086;-77
2021/12/13 07:42:11;;;;;;;7.57;3.15;;;;;;;7.93;87.25;101317.78;5082148;28;20075;-77
2021/12/13 07:44:44;;;;;;;8.73;3.50;;;;;;;7.94;87.32;101313.25;5078922;28;20032;-80
2021/12/13 07:47:23;;;;;;;6.60;2.85;;;;;;;7.91;87.75;101325.16;5081554;28;20028;-77
2021/12/13 07:49:58;;;;;;;7.30;2.90;;;;;;;8.00;87.50;101326.84;5077783;28;20467;-78
2021/12/13 07:52:38;;;;;;;7.05;2.72;;;;;;;8.08;87.40;101326.00;5077600;28;20035;-77
2021/12/13 07:55:19;;;;;;;11.23;3.35;;;;;;;7.97;86.80;101324.50;5078670;28;20467;-78
2021/12/13 07:57:46;;;;;;;7.53;3.13;;;;;;;7.92;87.26;101332.19;5093103;28;20033;-78
2021/12/13 08:00:24;;;;;;;7.80;2.85;;;;;;;7.89;87.36;101334.34;5078396;28;20037;-77
2021/12/13 08:02:57;;;;;;;7.78;3.00;;;;;;;7.90;87.71;101342.25;5077149;28;20360;-77
2021/12/13 08:05:26;;;;;;;7.45;3.38;;;;;;;7.91;87.17;101338.56;5076215;28;20028;-74
2021/12/13 08:07:58;;;;;;;8.40;3.45;;;;;;;7.92;86.95;101350.97;5076665;28;20032;-78
2021/12/13 08:10:31;;;;;;;7.70;3.20;;;;;;;7.96;87.11;101356.84;5077481;28;20040;-78
2021/12/13 08:13:08;;;;;;;9.07;2.83;;;;;;;7.93;86.86;101344.59;5076840;28;20032;-77
2021/12/13 08:15:41;;;;;;;;;;;;;;;7.97;87.78;101343.28;5077193;28;20387;-78
2021/12/13 08:18:25;;;;;;;5.78;2.72;;;;;;;7.99;86.59;101362.75;5078912;28;19913;-78
2021/12/13 08:21:00;;;;;;;11.25;4.13;;;;;;;7.99;86.75;101356.53;5079083;28;20077;-79
2021/12/13 08:23:35;;;;;;;8.43;3.60;;;;;;;7.94;86.38;101362.38;5095143;28;20029;-78
2021/12/13 08:26:06;;;;;;;9.25;3.13;;;;;;;7.92;86.84;101358.19;5079426;28;20124;-77
2021/12/13 08:28:47;;;;;;;5.65;2.17;;;;;;;7.94;86.59;101362.38;5078117;28;20107;-78
2021/12/13 08:31:22;;;;;;;5.60;2.67;;;;;;;7.96;86.85;101371.13;5076860;28;20395;-78
2021/12/13 08:33:53;;;;;;;7.75;2.97;;;;;;;7.95;86.87;101365.91;5077420;28;20032;-77
2021/12/13 08:36:29;;;;;;;5.38;2.42;;;;;;;7.98;87.13;101371.78;5077081;28;20067;-77
2021/12/13 08:39:21;;;;;;;6.18;2.45;;;;;;;7.92;86.70;101364.41;5077947;28;20036;-78
2021/12/13 08:41:54;;;;;;;8.38;2.75;;;;;;;7.90;86.38;101368.25;5076345;28;20111;-77
2021/12/13 08:44:32;;;;;;;6.32;2.95;;;;;;;7.91;86.92;101375.28;5075650;28;20483;-77
2021/12/13 08:47:06;;;;;;;8.10;3.10;;;;;;;7.96;86.84;101368.44;5076750;28;20043;-77
2021/12/13 08:49:52;;;;;;;5.18;2.15;;;;;;;7.93;86.84;101375.97;5076889;28;20036;-77
2021/12/13 08:52:30;;;;;;;5.90;2.78;;;;;;;7.97;86.87;101366.59;5078221;28;20431;-77
2021/12/13 08:55:05;;;;;;;5.90;2.13;;;;;;;7.95;86.83;101373.97;5077342;28;20056;-77
2021/12/13 08:57:46;;;;;;;5.25;2.20;;;;;;;7.97;86.57;101372.81;5075725;28;20134;-77
2021/12/13 09:00:14;;;;;;;7.57;2.97;;;;;;;8.06;86.46;101370.94;5075768;28;20551;-77
2021/12/13 09:02:45;;;;;;;9.38;2.47;;;;;;;8.02;86.26;101373.16;5076123;28;20038;-77
2021/12/13 09:05:17;;;;;;;6.57;2.55;;;;;;;8.05;86.31;101371.97;5079095;28;20455;-76
2021/12/13 09:08:05;;;;;;;5.82;2.58;;;;;;;8.04;85.90;101374.84;5097950;28;20032;-78
2021/12/13 09:10:55;;;;;;;6.90;2.95;;;;;;;7.97;86.17;101364.75;5077101;28;20033;-79
2021/12/13 09:13:36;;;;;;;6.55;2.92;;;;;;;7.97;86.12;101367.44;5091624;28;20033;-78
2021/12/13 09:16:03;;;;;;;6.07;2.33;;;;;;;7.95;86.67;101369.44;5075327;28;20427;-78
2021/12/13 09:18:28;;;;;;;;;;;;;;;7.97;86.43;101380.84;5076418;28;20060;-79
2021/12/13 09:20:57;;;;;;;5.00;2.47;;;;;;;8.01;86.20;101376.00;5075538;28;19917;-78
2021/12/13 09:23:27;;;;;;;6.43;2.70;;;;;;;7.95;86.43;101382.84;5075481;28;20175;-79
2021/12/13 09:26:02;;;;;;;5.70;2.20;;;;;;;7.94;86.48;101385.69;5076814;28;20475;-76
2021/12/13 09:28:57;;;;;;;5.97;2.75;;;;;;;7.95;86.49;101387.38;5074752;28;20032;-79
2021/12/13 09:31:27;;;;;;;4.72;2.13;;;;;;;7.94;86.48;101391.91;5046335;27;20379;-77
2021/12/13 09:33:57;;;;;;;8.23;3.10;;;;;;;7.96;86.49;101391.75;5068590;28;20549;-79
2021/12/13 09:36:28;;;;;;;7.07;3.22;;;;;;;8.00;86.40;101395.78;5072734;28;20051;-77
2021/12/13 09:39:06;;;;;;;6.13;2.50;;;;;;;8.00;86.36;101395.78;5077157;28;20036;-77
2021/12/13 09:41:38;;;;;;;5.57;2.30;;;;;;;7.97;86.19;101390.75;5076080;28;20085;-78
2021/12/13 09:44:09;;;;;;;6.05;2.78;;;;;;;7.98;86.61;101395.09;5075636;28;20032;-79
2021/12/13 09:46:43;;;;;;;5.32;2.53;;;;;;;8.02;86.41;101399.16;5075431;28;20162;-76
2021/12/13 09:49:20;;;;;;;6.63;2.25;;;;;;;8.01;86.54;101406.38;5075279;28;20081;-77
2021/12/13 09:52:10;;;;;;;6.22;2.67;;;;;;;8.01;86.20;101406.38;5074317;28;20467;-77
2021/12/13 09:54:41;;;;;;;5.28;2.17;;;;;;;8.02;86.38;101409.88;5076422;28;20032;-78
2021/12/13 09:57:13;;;;;;;5.63;2.47;;;;;;;7.99;86.19;101408.38;5076845;28;20040;-77
2021/12/13 09:59:45;;;;;;;7.45;2.30;;;;;;;8.00;86.23;101406.53;5074844;28;20031;-77
2021/12/13 10:02:25;;;;;;;7.43;2.90;;;;;;;8.00;86.32;101406.53;5077820;28;20129;-77
2021/12/13 10:04:53;;;;;;;6.20;2.42;;;;;;;8.00;86.09;101399.31;5075647;28;20059;-80
2021/12/13 10:07:25;;;;;;;4.50;1.92;;;;;;;7.98;86.29;101401.31;5077500;28;20036;-77
2021/12/13 10:09:58;;;;;;;8.02;2.40;;;;;;;7.99;86.01;101400.31;5077975;28;20033;-79
2021/12/13 10:12:28;;;;;;;5.10;2.22;;;;;;;8.01;86.43;101402.84;5074424;28;20098;-77
2021/12/13 10:15:06;;;;;;;6.15;1.90;;;;;;;7.99;86.40;101399.47;5074155;28;20081;-77
2021/12/13 10:17:35;;;;;;;4.55;1.83;;;;;;;8.00;86.57;101403.84;5074943;28;20031;-77
2021/12/13 10:20:07;;;;;;;6.68;2.00;;;;;;;7.99;86.51;101400.31;5076413;28;20036;-77
2021/12/13 10:22:33;;;;;;;5.70;2.47;;;;;;;7.99;86.40;101403.00;5073890;28;20059;-78
2021/12/13 10:25:12;;;;;;;5.65;2.20;;;;;;;7.99;86.29;101405.69;5074901;28;20463;-78
2021/12/13 10:27:39;;;;;;;6.20;2.55;;;;;;;8.01;86.61;101392.94;5074682;28;20304;-78
2021/12/13 10:30:12;;;;;;;4.10;1.80;;;;;;;8.00;86.76;101393.09;5073970;28;20052;-77
2021/12/13 10:32:40;;;;;;;4.82;2.22;;;;;;;8.00;86.50;101396.63;5075931;28;20024;-79
2021/12/13 10:35:13;;;;;;;6.45;2.72;;;;;;;8.01;86.44;101403.69;5074433;28;20040;-77
2021/12/13 10:37:50;;;;;;;5.05;1.92;;;;;;;8.05;86.59;101396.16;5074169;28;20032;-78
2021/12/13 10:40:15;;;;;;;;;;;;;;;8.05;86.48;101392.63;5075099;28;20107;-76
2021/12/13 10:42:45;;;;;;;5.13;2.37;;;;;;;8.03;86.69;101392.78;5073815;28;20476;-78
2021/12/13 10:45:18;;;;;;;4.80;1.80;;;;;;;8.07;86.88;101398.63;5073190;28;20328;-77
2021/12/13 10:47:48;;;;;;;5.75;2.78;;;;;;;8.04;86.49;101399.84;5075668;28;20040;-77
2021/12/13 10:50:23;;;;;;;4.90;2.65;;;;;;;8.05;86.43;101403.34;5075162;28;20082;-76
2021/12/13 10:52:51;;;;;;;4.57;1.83;;;;;;;8.07;86.04;101407.53;5073616;28;20430;-77
2021/12/13 10:55:32;;;;;;;6.28;2.78;;;;;;;8.07;86.86;101406.69;5073410;28;20120;-76
2021/12/13 10:57:58;;;;;;;5.80;2.30;;;;;;;8.04;86.28;101405.19;5088997;28;20167;-76
2021/12/13 11:00:30;;;;;;;5.78;2.22;;;;;;;8.04;86.64;101399.00;5073575;28;20111;-77
2021/12/13 11:03:06;;;;;;;7.70;2.70;;;;;;;8.08;86.72;101397.63;5072142;28;20051;-76
2021/12/13 11:05:32;;;;;;;4.70;1.88;;;;;;;8.05;86.97;101395.31;5073250;28;20029;-76
2021/12/13 11:08:00;;;;;;;5.85;2.63;;;;;;;8.07;86.82;101395.94;5073718;28;20463;-77
2021/12/13 11:10:31;;;;;;;5.70;1.90;;;;;;;8.06;86.49;101399.66;5071271;28;20033;-76
2021/12/13 11:12:59;;;;;;;6.60;2.30;;;;;;;8.08;86.82;101381.53;5072925;28;20532;-75
2021/12/13 11:15:30;;;;;;;6.13;1.73;;;;;;;8.04;86.75;101383.72;5073456;28;20028;-75
2021/12/13 11:17:57;;;;;;;5.28;1.52;;;;;;;8.02;86.56;101383.03;5073001;28;20040;-75
2021/12/13 11:20:29;;;;;;;4.25;1.92;;;;;;;8.02;86.63;101393.78;5073356;28;20371;-76
2021/12/13 11:22:55;;;;;;;4.90;2.15;;;;;;;8.04;86.96;101390.94;5073042;28;20031;-77
2021/12/13 11:25:29;;;;;;;4.78;2.00;;;;;;;8.06;87.22;101383.56;5040974;27;20077;-76
2021/12/13 11:27:55;;;;;;;4.82;1.92;;;;;;;8.06;86.71;101388.94;5073301;28;20040;-76
2021/12/13 11:30:27;;;;;;;5.38;1.70;;;;;;;8.05;86.94;101396.16;5073464;28;20028;-76
2021/12/13 11:32:58;;;;;;;7.43;2.85;;;;;;;8.11;86.92;101390.09;5071838;28;20464;-78
2021/12/13 11:35:47;;;;;;;5.63;2.13;;;;;;;8.10;86.67;101401.00;5073190;28;20064;-76
2021/12/13 11:39:00;;;;;;;5.40;2.20;;;;;;;8.13;86.70;101395.31;5071946;28;20102;-78
2021/12/13 11:41:51;;;;;;;8.23;5.55;;;;;;;8.23;86.53;101391.47;5072563;28;20199;-77
2021/12/13 11:44:54;;;;;;;5.13;2.40;;;;;;;8.20;86.58;101391.81;5072848;28;20044;-76
2021/12/13 11:47:40;;;;;;;5.28;1.98;;;;;;;8.24;86.25;101395.00;5072837;28;20036;-75
2021/12/13 11:50:43;;;;;;;4.63;2.08;;;;;;;8.22;86.09;101394.31;5072884;28;20036;-76
2021/12/13 11:53:30;;;;;;;5.22;2.05;;;;;;;8.28;86.24;101396.31;5072568;28;20170;-76
2021/12/13 11:56:29;;;;;;;6.22;2.40;;;;;;;8.31;86.03;101386.09;5074321;28;20032;-76
2021/12/13 11:59:25;;;;;;;4.75;2.05;;;;;;;8.34;85.74;101384.97;5076723;28;20075;-76
2021/12/13 12:02:03;;;;;;;5.78;2.13;;;;;;;8.38;85.72;101382.78;5079195;28;20029;-76
2021/12/13 12:04:59;;;;;;;5.93;2.72;;;;;;;8.33;85.71;101394.03;5077922;28;20036;-76
2021/12/13 12:07:58;;;;;;;6.40;2.65;;;;;;;8.35;85.34;101381.28;5092216;28;20071;-77
2021/12/13 12:10:49;;;;;;;4.65;2.10;;;;;;;8.38;85.68;101386.31;5075800;28;20040;-77
2021/12/13 12:13:41;;;;;;;5.63;2.55;;;;;;;8.38;85.53;101385.47;5077100;28;20043;-76
2021/12/13 12:16:07;;;;;;;5.88;2.58;;;;;;;8.38;85.34;101388.16;5078073;28;20074;-78
2021/12/13 12:18:34;;;;;;;;;;;;;;;8.38;85.38;101386.31;5078782;28;20051;-80